createdAt,value
2019-05-09T00:00:29.072Z,0.00
2019-05-09T00:01:29.059Z,0.00
2019-05-09T00:02:29.052Z,0.00
2019-05-09T00:03:29.037Z,0.00
2019-05-09T00:04:29.042Z,0.00
2019-05-09T00:05:29.014Z,0.00
2019-05-09T00:06:29.001Z,0.00
2019-05-09T00:07:28.989Z,0.00
2019-05-09T00:08:28.979Z,0.00
2019-05-09T00:09:28.984Z,0.00
2019-05-09T00:10:39.348Z,0.00
2019-05-09T00:11:29.945Z,0.00
2019-05-09T00:12:28.934Z,0.00
2019-05-09T00:13:28.922Z,0.00
2019-05-09T00:14:28.952Z,0.00
2019-05-09T00:15:28.896Z,0.00
2019-05-09T00:16:28.884Z,0.00
2019-05-09T00:17:28.877Z,0.00
2019-05-09T00:18:28.864Z,0.00
2019-05-09T00:19:28.855Z,0.00
2019-05-09T00:20:28.864Z,0.00
2019-05-09T00:21:28.827Z,0.00
2019-05-09T00:22:28.819Z,0.00
2019-05-09T00:23:28.809Z,0.00
2019-05-09T00:24:28.794Z,0.00
2019-05-09T00:25:28.785Z,0.00
2019-05-09T00:26:28.790Z,0.00
2019-05-09T00:27:28.761Z,0.00
2019-05-09T00:28:28.757Z,0.00
2019-05-09T00:29:28.735Z,0.00
2019-05-09T00:30:28.725Z,0.00
2019-05-09T00:31:28.729Z,0.00
2019-05-09T00:32:28.703Z,0.00
2019-05-09T00:33:28.696Z,0.00
2019-05-09T00:34:28.678Z,0.00
2019-05-09T00:35:28.666Z,0.00
2019-05-09T00:36:28.675Z,0.00
2019-05-09T00:37:28.644Z,0.00
2019-05-09T00:38:28.631Z,0.00
2019-05-09T00:39:28.621Z,0.00
2019-05-09T00:40:28.610Z,0.00
2019-05-09T00:41:28.623Z,0.00
2019-05-09T00:42:28.585Z,0.00
2019-05-09T00:43:28.578Z,0.00
2019-05-09T00:44:28.559Z,0.00
2019-05-09T00:45:28.553Z,0.00
2019-05-09T00:46:28.555Z,0.00
2019-05-09T00:47:28.525Z,0.00
2019-05-09T00:48:28.515Z,0.00
2019-05-09T00:49:28.502Z,0.00
2019-05-09T00:50:29.670Z,0.00
2019-05-09T00:51:28.497Z,0.00
2019-05-09T00:52:28.470Z,0.00
2019-05-09T00:53:28.455Z,0.00
2019-05-09T00:54:28.447Z,0.00
2019-05-09T00:55:28.434Z,0.00
2019-05-09T00:56:28.466Z,0.00
2019-05-09T00:57:28.412Z,0.00
2019-05-09T00:58:28.397Z,0.00
2019-05-09T00:59:28.389Z,0.00
2019-05-09T01:00:28.378Z,0.00
2019-05-09T01:01:28.365Z,0.00
2019-05-09T01:02:28.372Z,0.00
2019-05-09T01:03:28.341Z,0.00
2019-05-09T01:04:28.329Z,0.00
2019-05-09T01:05:28.319Z,0.00
2019-05-09T01:06:28.305Z,0.00
2019-05-09T01:07:28.315Z,0.00
2019-05-09T01:08:28.281Z,0.00
2019-05-09T01:09:28.272Z,0.00
2019-05-09T01:10:28.259Z,0.00
2019-05-09T01:11:28.248Z,0.00
2019-05-09T01:12:28.257Z,0.00
2019-05-09T01:13:28.226Z,0.00
2019-05-09T01:14:28.212Z,0.00
2019-05-09T01:15:28.201Z,0.00
2019-05-09T01:16:28.189Z,0.00
2019-05-09T01:17:28.198Z,0.00
2019-05-09T01:18:28.169Z,0.00
2019-05-09T01:19:28.154Z,0.00
2019-05-09T01:20:28.145Z,0.00
2019-05-09T01:21:28.136Z,0.00
2019-05-09T01:22:28.140Z,0.00
2019-05-09T01:23:28.108Z,0.00
2019-05-09T01:24:28.103Z,0.00
2019-05-09T01:25:28.089Z,0.00
2019-05-09T01:26:28.073Z,0.00
2019-05-09T01:27:28.080Z,0.00
2019-05-09T01:28:28.049Z,0.00
2019-05-09T01:29:28.042Z,0.00
2019-05-09T01:30:28.025Z,0.00
2019-05-09T01:31:28.015Z,0.00
2019-05-09T01:32:28.021Z,0.00
2019-05-09T01:33:27.991Z,0.00
2019-05-09T01:34:27.978Z,0.00
2019-05-09T01:35:27.967Z,0.00
2019-05-09T01:36:27.956Z,0.00
2019-05-09T01:37:27.967Z,0.00
2019-05-09T01:38:27.934Z,0.00
2019-05-09T01:39:27.921Z,0.00
2019-05-09T01:40:27.909Z,0.00
2019-05-09T01:41:33.401Z,0.00
2019-05-09T01:42:28.910Z,0.00
2019-05-09T01:43:27.873Z,0.00
2019-05-09T01:44:27.861Z,0.00
2019-05-09T01:45:27.867Z,0.00
2019-05-09T01:46:27.841Z,0.00
2019-05-09T01:47:27.827Z,0.00
2019-05-09T01:48:27.839Z,0.00
2019-05-09T01:49:27.813Z,0.00
2019-05-09T01:50:27.794Z,0.00
2019-05-09T01:51:27.779Z,0.00
2019-05-09T01:52:27.770Z,0.00
2019-05-09T01:53:27.775Z,0.00
2019-05-09T01:54:27.750Z,0.00
2019-05-09T01:55:27.733Z,0.00
2019-05-09T01:56:27.723Z,0.00
2019-05-09T01:57:27.712Z,0.00
2019-05-09T01:58:27.722Z,0.00
2019-05-09T01:59:27.692Z,0.00
2019-05-09T02:00:27.678Z,0.00
2019-05-09T02:01:27.665Z,0.00
2019-05-09T02:02:27.857Z,0.00
2019-05-09T02:03:27.664Z,0.00
2019-05-09T02:04:27.631Z,0.00
2019-05-09T02:05:27.621Z,0.00
2019-05-09T02:06:27.610Z,0.00
2019-05-09T02:07:27.597Z,0.00
2019-05-09T02:08:27.608Z,0.00
2019-05-09T02:09:27.574Z,0.00
2019-05-09T02:10:27.559Z,0.00
2019-05-09T02:11:39.398Z,0.00
2019-05-09T02:12:28.538Z,0.00
2019-05-09T02:13:27.529Z,0.00
2019-05-09T02:14:27.534Z,0.00
2019-05-09T02:15:27.503Z,0.00
2019-05-09T02:16:27.490Z,0.00
2019-05-09T02:17:27.483Z,0.00
2019-05-09T02:18:27.468Z,0.00
2019-05-09T02:19:27.478Z,0.00
2019-05-09T02:20:27.445Z,0.00
2019-05-09T02:21:27.434Z,0.00
2019-05-09T02:22:27.420Z,0.00
2019-05-09T02:23:27.408Z,0.00
2019-05-09T02:24:27.415Z,0.00
2019-05-09T02:25:27.385Z,0.00
2019-05-09T02:26:27.377Z,0.00
2019-05-09T02:27:27.365Z,0.00
2019-05-09T02:28:27.351Z,0.00
2019-05-09T02:29:27.361Z,0.00
2019-05-09T02:30:27.329Z,0.00
2019-05-09T02:31:27.319Z,0.00
2019-05-09T02:32:27.306Z,0.00
2019-05-09T02:33:27.295Z,0.00
2019-05-09T02:34:27.304Z,0.00
2019-05-09T02:35:29.327Z,0.00
2019-05-09T02:36:29.561Z,0.00
2019-05-09T02:37:28.789Z,0.00
2019-05-09T02:38:28.711Z,0.00
2019-05-09T02:39:29.407Z,0.00
2019-05-09T02:40:28.531Z,0.00
2019-05-09T02:41:28.660Z,0.00
2019-05-09T02:42:28.122Z,0.00
2019-05-09T02:43:29.016Z,0.00
2019-05-09T02:44:28.915Z,0.00
2019-05-09T02:45:28.423Z,0.00
2019-05-09T02:46:29.419Z,0.00
2019-05-09T02:47:28.967Z,0.00
2019-05-09T02:48:28.836Z,0.00
2019-05-09T02:49:28.739Z,0.00
2019-05-09T02:50:28.609Z,0.00
2019-05-09T02:51:29.235Z,0.00
2019-05-09T02:52:28.724Z,0.00
2019-05-09T02:53:28.868Z,0.00
2019-05-09T02:54:29.840Z,0.00
2019-05-09T02:55:28.830Z,0.00
2019-05-09T02:56:29.459Z,0.00
2019-05-09T02:57:29.381Z,0.00
2019-05-09T02:58:28.192Z,0.00
2019-05-09T02:59:29.653Z,0.00
2019-05-09T03:00:28.896Z,0.00
2019-05-09T03:01:29.406Z,0.00
2019-05-09T03:02:28.878Z,0.00
2019-05-09T03:03:29.099Z,0.00
2019-05-09T03:04:28.433Z,0.00
2019-05-09T03:05:29.692Z,0.00
2019-05-09T03:06:28.407Z,0.00
2019-05-09T03:07:28.833Z,0.00
2019-05-09T03:08:29.615Z,0.00
2019-05-09T03:09:28.619Z,0.00
2019-05-09T03:10:29.281Z,0.00
2019-05-09T03:11:28.965Z,0.00
2019-05-09T03:12:35.172Z,0.00
2019-05-09T03:13:29.093Z,0.00
2019-05-09T03:14:28.690Z,0.00
2019-05-09T03:15:29.114Z,0.00
2019-05-09T03:16:29.277Z,0.00
2019-05-09T03:17:28.085Z,0.00
2019-05-09T03:18:28.652Z,0.00
2019-05-09T03:19:29.431Z,0.00
2019-05-09T03:20:28.894Z,0.00
2019-05-09T03:21:29.852Z,0.00
2019-05-09T03:22:28.905Z,0.00
2019-05-09T03:23:28.562Z,0.00
2019-05-09T03:24:28.761Z,0.00
2019-05-09T03:25:28.940Z,0.00
2019-05-09T03:26:29.227Z,0.00
2019-05-09T03:27:28.734Z,0.00
2019-05-09T03:28:28.361Z,0.00
2019-05-09T03:29:29.146Z,0.00
2019-05-09T03:30:29.061Z,0.00
2019-05-09T03:31:29.597Z,0.00
2019-05-09T03:32:29.747Z,0.00
2019-05-09T03:33:29.623Z,0.00
2019-05-09T03:34:30.080Z,0.00
2019-05-09T03:35:27.568Z,0.00
2019-05-09T03:36:28.107Z,0.00
2019-05-09T03:37:27.841Z,0.00
2019-05-09T03:38:28.421Z,0.00
2019-05-09T03:39:27.637Z,0.00
2019-05-09T03:40:27.210Z,0.00
2019-05-09T03:41:28.198Z,5.62
2019-05-09T03:42:38.093Z,5.62
2019-05-09T03:43:27.656Z,5.62
2019-05-09T03:44:28.227Z,5.62
2019-05-09T03:45:27.330Z,5.62
2019-05-09T03:46:28.027Z,5.62
2019-05-09T03:47:27.613Z,5.62
2019-05-09T03:48:28.376Z,11.25
2019-05-09T03:49:28.397Z,11.25
2019-05-09T03:50:27.955Z,11.25
2019-05-09T03:51:27.498Z,11.25
2019-05-09T03:52:27.974Z,11.25
2019-05-09T03:53:27.564Z,16.88
2019-05-09T03:54:28.314Z,16.88
2019-05-09T03:55:28.142Z,16.88
2019-05-09T03:56:27.373Z,16.88
2019-05-09T03:57:28.282Z,22.50
2019-05-09T03:58:28.134Z,22.50
2019-05-09T03:59:27.858Z,22.50
2019-05-09T04:00:28.266Z,22.50
2019-05-09T04:01:28.047Z,28.12
2019-05-09T04:02:28.083Z,28.12
2019-05-09T04:03:27.691Z,28.12
2019-05-09T04:04:28.058Z,33.75
2019-05-09T04:05:27.294Z,33.75
2019-05-09T04:06:28.223Z,33.75
2019-05-09T04:07:27.772Z,33.75
2019-05-09T04:08:28.101Z,39.38
2019-05-09T04:09:27.345Z,39.38
2019-05-09T04:10:28.084Z,39.38
2019-05-09T04:11:27.615Z,45.00
2019-05-09T04:12:28.332Z,45.00
2019-05-09T04:13:28.295Z,45.00
2019-05-09T04:14:28.077Z,50.62
2019-05-09T04:15:27.478Z,50.62
2019-05-09T04:16:27.689Z,50.62
2019-05-09T04:17:28.054Z,56.25
2019-05-09T04:18:27.738Z,56.25
2019-05-09T04:19:27.587Z,56.25
2019-05-09T04:20:27.692Z,61.88
2019-05-09T04:21:27.986Z,61.88
2019-05-09T04:22:27.144Z,67.50
2019-05-09T04:23:27.517Z,67.50
2019-05-09T04:24:27.976Z,67.50
2019-05-09T04:25:27.362Z,73.12
2019-05-09T04:26:27.685Z,73.12
2019-05-09T04:27:29.664Z,78.75
2019-05-09T04:28:27.773Z,78.75
2019-05-09T04:29:28.409Z,84.38
2019-05-09T04:30:27.438Z,84.38
2019-05-09T04:31:27.828Z,90.00
2019-05-09T04:32:27.379Z,90.00
2019-05-09T04:33:27.812Z,95.62
2019-05-09T04:34:27.539Z,95.62
2019-05-09T04:35:27.832Z,101.25
2019-05-09T04:36:27.335Z,101.25
2019-05-09T04:37:28.120Z,101.25
2019-05-09T04:38:27.934Z,106.88
2019-05-09T04:39:28.013Z,106.88
2019-05-09T04:40:31.140Z,106.88
2019-05-09T04:41:28.559Z,112.50
2019-05-09T04:42:25.814Z,112.50
2019-05-09T04:43:34.302Z,118.12
2019-05-09T04:44:28.388Z,118.12
2019-05-09T04:45:28.171Z,118.12
2019-05-09T04:46:27.738Z,123.75
2019-05-09T04:47:27.648Z,118.12
2019-05-09T04:48:28.037Z,123.75
2019-05-09T04:49:39.259Z,129.38
2019-05-09T04:50:27.951Z,135.00
2019-05-09T04:51:25.692Z,135.00
2019-05-09T04:52:27.823Z,135.00
2019-05-09T04:53:25.668Z,135.00
2019-05-09T04:54:27.878Z,140.62
2019-05-09T04:55:27.325Z,140.62
2019-05-09T04:56:27.736Z,140.62
2019-05-09T04:57:27.758Z,140.62
2019-05-09T04:58:27.382Z,146.25
2019-05-09T04:59:28.142Z,146.25
2019-05-09T05:00:27.338Z,146.25
2019-05-09T05:01:27.987Z,151.88
2019-05-09T05:02:27.557Z,151.88
2019-05-09T05:03:25.555Z,151.88
2019-05-09T05:04:25.540Z,151.88
2019-05-09T05:05:25.526Z,151.88
2019-05-09T05:06:27.907Z,151.88
2019-05-09T05:07:25.505Z,157.50
2019-05-09T05:08:25.513Z,157.50
2019-05-09T05:09:27.594Z,157.50
2019-05-09T05:10:27.351Z,157.50
2019-05-09T05:11:27.762Z,157.50
2019-05-09T05:12:27.586Z,163.12
2019-05-09T05:13:29.018Z,157.50
2019-05-09T05:14:25.421Z,157.50
2019-05-09T05:15:27.557Z,168.75
2019-05-09T05:16:27.409Z,174.38
2019-05-09T05:17:25.388Z,174.38
2019-05-09T05:18:25.397Z,174.38
2019-05-09T05:19:25.365Z,180.00
2019-05-09T05:20:27.633Z,191.25
2019-05-09T05:21:25.341Z,196.88
2019-05-09T05:22:25.329Z,196.88
2019-05-09T05:23:27.470Z,202.50
2019-05-09T05:24:27.657Z,202.50
2019-05-09T05:25:25.294Z,208.12
2019-05-09T05:26:27.573Z,208.12
2019-05-09T05:27:27.654Z,208.12
2019-05-09T05:28:27.687Z,202.50
2019-05-09T05:29:25.247Z,202.50
2019-05-09T05:30:25.236Z,208.12
2019-05-09T05:31:25.225Z,219.38
2019-05-09T05:32:25.212Z,219.38
2019-05-09T05:33:27.654Z,219.38
2019-05-09T05:34:27.330Z,225.00
2019-05-09T05:35:25.177Z,225.00
2019-05-09T05:36:25.167Z,225.00
2019-05-09T05:37:25.156Z,225.00
2019-05-09T05:38:26.991Z,225.00
2019-05-09T05:39:25.142Z,230.62
2019-05-09T05:40:25.118Z,230.62
2019-05-09T05:41:25.109Z,225.00
2019-05-09T05:42:27.688Z,230.62
2019-05-09T05:43:38.540Z,241.88
2019-05-09T05:44:28.123Z,247.50
2019-05-09T05:45:25.061Z,247.50
2019-05-09T05:46:25.051Z,253.12
2019-05-09T05:47:27.243Z,258.75
2019-05-09T05:48:25.046Z,258.75
2019-05-09T05:49:25.038Z,264.38
2019-05-09T05:50:25.026Z,270.00
2019-05-09T05:51:24.994Z,270.00
2019-05-09T05:52:24.984Z,275.62
2019-05-09T05:53:24.975Z,281.25
2019-05-09T05:54:27.524Z,286.88
2019-05-09T05:55:27.318Z,292.50
2019-05-09T05:56:24.938Z,292.50
2019-05-09T05:57:24.927Z,303.75
2019-05-09T05:58:24.916Z,320.62
2019-05-09T05:59:24.922Z,343.12
2019-05-09T06:00:24.894Z,360.00
2019-05-09T06:01:24.883Z,399.38
2019-05-09T06:02:24.869Z,438.75
2019-05-09T06:03:24.860Z,483.75
2019-05-09T06:04:27.405Z,517.50
2019-05-09T06:05:24.834Z,545.62
2019-05-09T06:06:24.824Z,528.75
2019-05-09T06:07:24.813Z,495.00
2019-05-09T06:08:24.801Z,444.38
2019-05-09T06:09:24.808Z,410.62
2019-05-09T06:10:24.776Z,393.75
2019-05-09T06:11:24.763Z,365.62
2019-05-09T06:12:24.793Z,376.88
2019-05-09T06:13:24.741Z,376.88
2019-05-09T06:14:24.748Z,382.50
2019-05-09T06:15:24.715Z,382.50
2019-05-09T06:16:24.707Z,382.50
2019-05-09T06:17:24.694Z,388.12
2019-05-09T06:18:24.681Z,410.62
2019-05-09T06:19:24.688Z,433.12
2019-05-09T06:20:24.658Z,461.25
2019-05-09T06:21:24.646Z,495.00
2019-05-09T06:22:24.637Z,517.50
2019-05-09T06:23:24.624Z,540.00
2019-05-09T06:24:24.631Z,545.62
2019-05-09T06:25:24.602Z,545.62
2019-05-09T06:26:24.589Z,556.88
2019-05-09T06:27:24.577Z,585.00
2019-05-09T06:28:24.567Z,1091.25
2019-05-09T06:29:24.571Z,1704.38
2019-05-09T06:30:24.542Z,1822.50
2019-05-09T06:31:24.535Z,517.50
2019-05-09T06:32:24.521Z,478.12
2019-05-09T06:33:24.508Z,669.38
2019-05-09T06:34:24.515Z,770.62
2019-05-09T06:35:24.484Z,1288.12
2019-05-09T06:36:24.475Z,1057.50
2019-05-09T06:37:24.462Z,798.75
2019-05-09T06:38:24.449Z,708.75
2019-05-09T06:39:24.479Z,680.62
2019-05-09T06:40:24.431Z,720.00
2019-05-09T06:41:24.413Z,748.12
2019-05-09T06:42:25.472Z,736.88
2019-05-09T06:43:24.392Z,787.50
2019-05-09T06:44:24.379Z,1254.38
2019-05-09T06:45:24.388Z,1260.00
2019-05-09T06:46:24.362Z,2401.88
2019-05-09T06:47:24.362Z,2626.88
2019-05-09T06:48:24.335Z,2025.00
2019-05-09T06:49:29.294Z,2503.12
2019-05-09T06:50:27.172Z,2497.50
2019-05-09T06:51:24.298Z,2289.38
2019-05-09T06:52:24.287Z,2311.88
2019-05-09T06:53:24.274Z,2362.50
2019-05-09T06:54:24.264Z,2587.50
2019-05-09T06:55:24.269Z,2503.12
2019-05-09T06:56:24.241Z,2576.25
2019-05-09T06:57:24.231Z,2407.50
2019-05-09T06:58:24.217Z,2328.75
2019-05-09T06:59:24.205Z,2390.62
2019-05-09T07:00:24.215Z,2553.75
2019-05-09T07:01:24.190Z,2694.38
2019-05-09T07:02:24.172Z,2739.38
2019-05-09T07:03:24.160Z,2638.12
2019-05-09T07:04:24.150Z,2345.62
2019-05-09T07:05:24.178Z,2373.75
2019-05-09T07:06:24.127Z,2711.25
2019-05-09T07:07:24.115Z,2829.38
2019-05-09T07:08:24.103Z,2553.75
2019-05-09T07:09:24.091Z,1597.50
2019-05-09T07:10:24.083Z,1974.38
2019-05-09T07:11:24.090Z,1901.25
2019-05-09T07:12:24.056Z,1985.62
2019-05-09T07:13:24.047Z,1861.88
2019-05-09T07:14:28.677Z,1861.88
2019-05-09T07:15:25.021Z,2002.50
2019-05-09T07:16:24.031Z,2452.50
2019-05-09T07:17:24.002Z,1861.88
2019-05-09T07:18:23.989Z,1940.62
2019-05-09T07:19:23.977Z,2041.88
2019-05-09T07:20:23.972Z,2587.50
2019-05-09T07:21:23.977Z,3881.25
2019-05-09T07:22:23.945Z,3796.88
2019-05-09T07:23:23.935Z,3009.38
2019-05-09T07:24:23.931Z,2565.00
2019-05-09T07:25:23.912Z,2604.38
2019-05-09T07:26:23.920Z,2857.50
2019-05-09T07:27:23.890Z,2930.62
2019-05-09T07:28:23.891Z,2548.12
2019-05-09T07:29:23.866Z,2604.38
2019-05-09T07:30:23.859Z,2795.62
2019-05-09T07:31:23.860Z,2767.50
2019-05-09T07:32:23.831Z,2508.75
2019-05-09T07:33:23.822Z,2598.75
2019-05-09T07:34:23.809Z,2345.62
2019-05-09T07:35:23.799Z,2362.50
2019-05-09T07:36:23.812Z,2401.88
2019-05-09T07:37:23.774Z,2480.62
2019-05-09T07:38:23.766Z,2514.38
2019-05-09T07:39:23.752Z,2593.12
2019-05-09T07:40:26.897Z,2559.38
2019-05-09T07:41:24.769Z,2497.50
2019-05-09T07:42:23.721Z,2542.50
2019-05-09T07:43:23.708Z,2688.75
2019-05-09T07:44:23.697Z,2790.00
2019-05-09T07:45:23.684Z,2840.62
2019-05-09T07:46:23.673Z,2790.00
2019-05-09T07:47:23.679Z,2823.75
2019-05-09T07:48:23.652Z,2902.50
2019-05-09T07:49:23.639Z,2801.25
2019-05-09T07:50:23.633Z,2790.00
2019-05-09T07:51:23.620Z,2643.75
2019-05-09T07:52:23.627Z,2823.75
2019-05-09T07:53:23.598Z,2986.88
2019-05-09T07:54:25.663Z,3110.62
2019-05-09T07:55:23.576Z,3183.75
2019-05-09T07:56:23.563Z,3268.12
2019-05-09T07:57:23.574Z,3273.75
2019-05-09T07:58:23.542Z,3043.12
2019-05-09T07:59:23.534Z,2767.50
2019-05-09T08:00:23.525Z,2553.75
2019-05-09T08:01:23.522Z,3279.38
2019-05-09T08:02:23.516Z,3240.00
2019-05-09T08:03:23.490Z,3088.12
2019-05-09T08:04:25.324Z,3121.88
2019-05-09T08:05:23.466Z,3105.00
2019-05-09T08:06:23.456Z,3341.25
2019-05-09T08:07:23.466Z,3206.25
2019-05-09T08:08:23.444Z,3408.75
2019-05-09T08:09:23.423Z,3481.88
2019-05-09T08:10:23.410Z,3465.00
2019-05-09T08:11:23.402Z,3352.50
2019-05-09T08:12:23.391Z,3313.12
2019-05-09T08:13:23.397Z,2446.88
2019-05-09T08:14:23.375Z,1839.38
2019-05-09T08:15:23.358Z,3150.00
2019-05-09T08:16:23.398Z,3358.12
2019-05-09T08:17:23.334Z,2930.62
2019-05-09T08:18:23.348Z,2756.25
2019-05-09T08:19:23.312Z,3369.38
2019-05-09T08:20:23.303Z,3273.75
2019-05-09T08:21:23.293Z,3330.00
2019-05-09T08:22:26.051Z,3251.25
2019-05-09T08:23:23.267Z,3161.25
2019-05-09T08:24:23.279Z,3127.50
2019-05-09T08:25:23.249Z,3211.88
2019-05-09T08:26:23.247Z,3026.25
2019-05-09T08:27:23.225Z,2278.12
2019-05-09T08:28:23.216Z,2025.00
2019-05-09T08:29:23.223Z,1563.75
2019-05-09T08:30:23.195Z,1749.38
2019-05-09T08:31:23.183Z,1423.12
2019-05-09T08:32:23.171Z,1406.25
2019-05-09T08:33:23.162Z,1591.88
2019-05-09T08:34:23.169Z,1845.00
2019-05-09T08:35:23.139Z,1850.62
2019-05-09T08:36:23.127Z,2356.88
2019-05-09T08:37:23.116Z,2739.38
2019-05-09T08:38:23.107Z,2773.12
2019-05-09T08:39:23.113Z,2868.75
2019-05-09T08:40:23.086Z,2525.62
2019-05-09T08:41:23.074Z,2401.88
2019-05-09T08:42:23.062Z,2941.88
2019-05-09T08:43:23.056Z,2491.88
2019-05-09T08:44:23.058Z,2643.75
2019-05-09T08:45:27.533Z,1901.25
2019-05-09T08:46:24.024Z,1485.00
2019-05-09T08:47:23.015Z,1068.75
2019-05-09T08:48:22.999Z,956.25
2019-05-09T08:49:23.007Z,1170.00
2019-05-09T08:50:22.975Z,1518.75
2019-05-09T08:51:22.962Z,950.62
2019-05-09T08:52:22.951Z,939.38
2019-05-09T08:53:22.941Z,1158.75
2019-05-09T08:54:22.950Z,1923.75
2019-05-09T08:55:22.921Z,1940.62
2019-05-09T08:56:22.908Z,2036.25
2019-05-09T08:57:22.899Z,1113.75
2019-05-09T08:58:22.887Z,1395.00
2019-05-09T08:59:22.892Z,1051.88
2019-05-09T09:00:22.862Z,1001.25
2019-05-09T09:01:29.693Z,911.25
2019-05-09T09:02:23.838Z,810.00
2019-05-09T09:03:22.833Z,1023.75
2019-05-09T09:04:22.840Z,1215.00
2019-05-09T09:05:22.805Z,1237.50
2019-05-09T09:06:22.800Z,1186.88
2019-05-09T09:07:22.783Z,5028.75
2019-05-09T09:08:22.772Z,3532.50
2019-05-09T09:09:22.763Z,4111.88
2019-05-09T09:10:22.768Z,4393.12
2019-05-09T09:11:22.739Z,3701.25
2019-05-09T09:12:30.567Z,1209.38
2019-05-09T09:13:23.714Z,3414.38
2019-05-09T09:14:22.706Z,3583.12
2019-05-09T09:15:22.710Z,1029.38
2019-05-09T09:16:22.783Z,978.75
2019-05-09T09:17:22.699Z,1276.88
2019-05-09T09:18:22.672Z,1108.12
2019-05-09T09:19:22.650Z,956.25
2019-05-09T09:20:22.655Z,1265.62
2019-05-09T09:21:22.623Z,1068.75
2019-05-09T09:22:22.617Z,894.38
2019-05-09T09:23:22.601Z,900.00
2019-05-09T09:24:22.590Z,1310.62
2019-05-09T09:25:22.597Z,1248.75
2019-05-09T09:26:22.567Z,1558.12
2019-05-09T09:27:22.554Z,5338.12
2019-05-09T09:28:22.544Z,2480.62
2019-05-09T09:29:22.535Z,5709.38
2019-05-09T09:30:25.110Z,4455.00
2019-05-09T09:31:22.508Z,5411.25
2019-05-09T09:32:22.501Z,5326.88
2019-05-09T09:33:22.488Z,1535.62
2019-05-09T09:34:22.475Z,1541.25
2019-05-09T09:35:22.464Z,1057.50
2019-05-09T09:36:22.475Z,1254.38
2019-05-09T09:37:22.444Z,1057.50
2019-05-09T09:38:22.435Z,3791.25
2019-05-09T09:39:22.420Z,911.25
2019-05-09T09:40:22.413Z,866.25
2019-05-09T09:41:22.417Z,776.25
2019-05-09T09:42:22.387Z,810.00
2019-05-09T09:43:22.374Z,967.50
2019-05-09T09:44:22.642Z,1254.38
2019-05-09T09:45:22.351Z,5326.88
2019-05-09T09:46:22.358Z,3903.75
2019-05-09T09:47:23.518Z,2266.88
2019-05-09T09:48:22.319Z,1749.38
2019-05-09T09:49:22.307Z,5506.88
2019-05-09T09:50:22.296Z,2587.50
2019-05-09T09:51:22.323Z,5574.38
2019-05-09T09:52:22.280Z,5715.00
2019-05-09T09:53:22.265Z,1321.88
2019-05-09T09:54:22.250Z,2688.75
2019-05-09T09:55:22.239Z,5776.88
2019-05-09T09:56:22.670Z,2047.50
2019-05-09T09:57:22.242Z,1113.75
2019-05-09T09:58:22.208Z,905.62
2019-05-09T09:59:22.194Z,1141.88
2019-05-09T10:00:22.182Z,5585.62
2019-05-09T10:01:22.171Z,1203.75
2019-05-09T10:02:22.177Z,1170.00
2019-05-09T10:03:22.346Z,5495.62
2019-05-09T10:04:24.374Z,5276.25
2019-05-09T10:05:22.127Z,5113.12
2019-05-09T10:06:22.123Z,5304.38
2019-05-09T10:07:22.123Z,5529.38
2019-05-09T10:08:22.096Z,5321.25
2019-05-09T10:09:22.083Z,5040.00
2019-05-09T10:10:22.075Z,4910.62
2019-05-09T10:11:22.063Z,4916.25
2019-05-09T10:12:22.068Z,4685.62
2019-05-09T10:13:22.042Z,3931.88
2019-05-09T10:14:22.031Z,4815.00
2019-05-09T10:15:22.018Z,1271.25
2019-05-09T10:16:28.743Z,4860.00
2019-05-09T10:17:23.015Z,4719.38
2019-05-09T10:18:21.988Z,877.50
2019-05-09T10:19:21.973Z,1473.75
2019-05-09T10:20:22.011Z,2896.88
2019-05-09T10:21:21.953Z,1693.12
2019-05-09T10:22:24.842Z,1338.75
2019-05-09T10:23:21.952Z,1479.38
2019-05-09T10:24:21.924Z,1338.75
2019-05-09T10:25:21.912Z,984.38
2019-05-09T10:26:21.899Z,888.75
2019-05-09T10:27:21.887Z,821.25
2019-05-09T10:28:21.974Z,815.62
2019-05-09T10:29:21.863Z,810.00
2019-05-09T10:30:21.850Z,911.25
2019-05-09T10:31:21.882Z,995.62
2019-05-09T10:32:21.832Z,922.50
2019-05-09T10:33:21.837Z,860.62
2019-05-09T10:34:21.806Z,871.88
2019-05-09T10:35:21.793Z,911.25
2019-05-09T10:36:21.782Z,2154.38
2019-05-09T10:37:21.771Z,1012.50
2019-05-09T10:38:21.781Z,1001.25
2019-05-09T10:39:21.750Z,1170.00
2019-05-09T10:40:21.770Z,2109.38
2019-05-09T10:41:21.726Z,4516.88
2019-05-09T10:42:21.714Z,5439.38
2019-05-09T10:43:34.752Z,5670.00
2019-05-09T10:44:22.695Z,1614.38
2019-05-09T10:45:21.680Z,1687.50
2019-05-09T10:46:21.670Z,6361.88
2019-05-09T10:47:21.657Z,2025.00
2019-05-09T10:48:23.924Z,4213.12
2019-05-09T10:49:21.635Z,4145.62
2019-05-09T10:50:33.771Z,1726.88
2019-05-09T10:51:22.612Z,1811.25
2019-05-09T10:52:21.603Z,3915.00
2019-05-09T10:53:21.588Z,2767.50
2019-05-09T10:54:21.598Z,2233.12
2019-05-09T10:55:21.568Z,1822.50
2019-05-09T10:56:21.556Z,1856.25
2019-05-09T10:57:21.546Z,1608.75
2019-05-09T10:58:23.808Z,3133.12
2019-05-09T10:59:21.540Z,3200.62
2019-05-09T11:00:21.509Z,3335.62
2019-05-09T11:01:21.495Z,2818.12
2019-05-09T11:02:21.487Z,2413.12
2019-05-09T11:03:21.504Z,2795.62
2019-05-09T11:04:21.485Z,3943.12
2019-05-09T11:05:21.459Z,4561.88
2019-05-09T11:06:21.440Z,4494.38
2019-05-09T11:07:21.436Z,3093.75
2019-05-09T11:08:21.421Z,3965.62
2019-05-09T11:09:21.424Z,1372.50
2019-05-09T11:10:27.763Z,4331.25
2019-05-09T11:11:22.426Z,4438.12
2019-05-09T11:12:21.372Z,4944.38
2019-05-09T11:13:21.365Z,1288.12
2019-05-09T11:14:35.976Z,3926.25
2019-05-09T11:15:22.337Z,3841.88
2019-05-09T11:16:21.334Z,1361.25
2019-05-09T11:17:21.993Z,4545.00
2019-05-09T11:18:21.311Z,4410.00
2019-05-09T11:19:21.318Z,1175.62
2019-05-09T11:20:21.288Z,4725.00
2019-05-09T11:21:21.274Z,1670.62
2019-05-09T11:22:23.434Z,1035.00
2019-05-09T11:23:21.256Z,945.00
2019-05-09T11:24:21.251Z,967.50
2019-05-09T11:25:21.252Z,1321.88
2019-05-09T11:26:21.219Z,1985.62
2019-05-09T11:27:21.208Z,4050.00
2019-05-09T11:28:21.198Z,1119.38
2019-05-09T11:29:21.187Z,1209.38
2019-05-09T11:30:21.194Z,1001.25
2019-05-09T11:31:21.399Z,871.88
2019-05-09T11:32:21.150Z,826.88
2019-05-09T11:33:21.143Z,804.38
2019-05-09T11:34:21.127Z,810.00
2019-05-09T11:35:21.151Z,894.38
2019-05-09T11:36:21.397Z,1006.88
2019-05-09T11:37:22.293Z,1158.75
2019-05-09T11:38:32.527Z,1310.62
2019-05-09T11:39:35.766Z,1479.38
2019-05-09T11:40:22.156Z,1648.12
2019-05-09T11:41:21.073Z,1833.75
2019-05-09T11:42:21.053Z,4016.25
2019-05-09T11:43:21.030Z,3937.50
2019-05-09T11:44:21.025Z,3870.00
2019-05-09T11:45:21.032Z,3678.75
2019-05-09T11:46:20.990Z,1220.62
2019-05-09T11:47:32.036Z,1051.88
2019-05-09T11:48:21.972Z,1012.50
2019-05-09T11:49:20.976Z,961.88
2019-05-09T11:50:23.145Z,939.38
2019-05-09T11:51:22.840Z,945.00
2019-05-09T11:52:20.945Z,945.00
2019-05-09T11:53:20.914Z,945.00
2019-05-09T11:54:20.937Z,916.88
2019-05-09T11:55:29.930Z,900.00
2019-05-09T11:56:21.990Z,877.50
2019-05-09T11:57:20.866Z,855.00
2019-05-09T11:58:20.865Z,793.12
2019-05-09T11:59:20.851Z,720.00
2019-05-09T12:00:20.845Z,686.25
2019-05-09T12:01:20.847Z,686.25
2019-05-09T12:02:20.806Z,708.75
2019-05-09T12:03:20.812Z,759.38
2019-05-09T12:04:20.813Z,826.88
2019-05-09T12:05:20.787Z,922.50
2019-05-09T12:06:20.785Z,1040.62
2019-05-09T12:07:20.753Z,1147.50
2019-05-09T12:08:20.751Z,1186.88
2019-05-09T12:09:20.748Z,1203.75
2019-05-09T12:10:20.717Z,1260.00
2019-05-09T12:11:20.739Z,1552.50
2019-05-09T12:12:20.705Z,1271.25
2019-05-09T12:13:20.694Z,1276.88
2019-05-09T12:14:20.677Z,1276.88
2019-05-09T12:15:20.677Z,1254.38
2019-05-09T12:16:20.690Z,1237.50
2019-05-09T12:17:20.650Z,1226.25
2019-05-09T12:18:20.641Z,1226.25
2019-05-09T12:19:20.617Z,1248.75
2019-05-09T12:20:20.604Z,1254.38
2019-05-09T12:21:20.605Z,1231.88
2019-05-09T12:22:20.621Z,1220.62
2019-05-09T12:23:20.583Z,1276.88
2019-05-09T12:24:20.573Z,1305.00
2019-05-09T12:25:20.575Z,1383.75
2019-05-09T12:26:20.536Z,1389.38
2019-05-09T12:27:20.558Z,1338.75
2019-05-09T12:28:20.524Z,1265.62
2019-05-09T12:29:20.516Z,1237.50
2019-05-09T12:30:20.492Z,1248.75
2019-05-09T12:31:20.497Z,1254.38
2019-05-09T12:32:20.491Z,1265.62
2019-05-09T12:33:20.457Z,1271.25
2019-05-09T12:34:20.447Z,1282.50